sensor_id;sensor_type;location;lat;lon;timestamp;temperature;humidity
21261;DHT22;10788;47.930;9.766;2023-06-22T00:00:55;20.30;99.90
21261;DHT22;10788;47.930;9.766;2023-06-22T00:03:22;20.30;99.90
21261;DHT22;10788;47.930;9.766;2023-06-22T00:05:49;20.20;99.90
21261;DHT22;10788;47.930;9.766;2023-06-22T00:08:16;20.10;99.90
21261;DHT22;10788;47.930;9.766;2023-06-22T00:10:42;20.00;99.90
21261;DHT22;10788;47.930;9.766;2023-06-22T00:13:08;20.00;99.90
21261;DHT22;10788;47.930;9.766;2023-06-22T00:15:35;19.90;99.90
21261;DHT22;10788;47.930;9.766;2023-06-22T00:18:00;20.00;99.90
21261;DHT22;10788;47.930;9.766;2023-06-22T00:20:27;19.90;99.90
21261;DHT22;10788;47.930;9.766;2023-06-22T00:22:57;19.90;99.90
21261;DHT22;10788;47.930;9.766;2023-06-22T00:25:23;19.90;99.90
21261;DHT22;10788;47.930;9.766;2023-06-22T00:27:49;19.90;99.90
21261;DHT22;10788;47.930;9.766;2023-06-22T00:30:18;19.80;99.90
21261;DHT22;10788;47.930;9.766;2023-06-22T00:32:44;19.70;99.90
21261;DHT22;10788;47.930;9.766;2023-06-22T00:35:13;19.70;99.90
21261;DHT22;10788;47.930;9.766;2023-06-22T00:37:39;19.70;99.90
21261;DHT22;10788;47.930;9.766;2023-06-22T00:40:09;19.70;99.90
21261;DHT22;10788;47.930;9.766;2023-06-22T00:42:37;19.70;99.90
21261;DHT22;10788;47.930;9.766;2023-06-22T00:45:03;19.60;99.90
21261;DHT22;10788;47.930;9.766;2023-06-22T00:47:29;19.60;99.90
21261;DHT22;10788;47.930;9.766;2023-06-22T00:49:55;19.60;99.90
21261;DHT22;10788;47.930;9.766;2023-06-22T00:52:22;19.50;99.90
21261;DHT22;10788;47.930;9.766;2023-06-22T00:54:53;19.40;99.90
21261;DHT22;10788;47.930;9.766;2023-06-22T00:57:20;19.40;99.90
21261;DHT22;10788;47.930;9.766;2023-06-22T00:59:48;19.50;99.90
21261;DHT22;10788;47.930;9.766;2023-06-22T01:02:13;19.40;99.90
21261;DHT22;10788;47.930;9.766;2023-06-22T01:04:40;19.40;99.90
21261;DHT22;10788;47.930;9.766;2023-06-22T01:07:23;19.40;99.90
21261;DHT22;10788;47.930;9.766;2023-06-22T01:10:18;19.40;99.90
21261;DHT22;10788;47.930;9.766;2023-06-22T01:12:55;19.40;99.90
21261;DHT22;10788;47.930;9.766;2023-06-22T01:15:31;19.40;99.90
21261;DHT22;10788;47.930;9.766;2023-06-22T01:17:59;19.40;99.90
21261;DHT22;10788;47.930;9.766;2023-06-22T01:20:28;19.40;99.90
21261;DHT22;10788;47.930;9.766;2023-06-22T01:23:20;19.30;99.90
21261;DHT22;10788;47.930;9.766;2023-06-22T01:28:50;19.30;99.90
21261;DHT22;10788;47.930;9.766;2023-06-22T01:31:24;19.20;99.90
21261;DHT22;10788;47.930;9.766;2023-06-22T01:33:54;19.20;99.90
21261;DHT22;10788;47.930;9.766;2023-06-22T01:36:21;19.20;99.90
21261;DHT22;10788;47.930;9.766;2023-06-22T01:38:48;19.10;99.90
21261;DHT22;10788;47.930;9.766;2023-06-22T01:41:15;19.20;99.90
21261;DHT22;10788;47.930;9.766;2023-06-22T01:43:43;19.10;99.90
21261;DHT22;10788;47.930;9.766;2023-06-22T01:46:09;19.20;99.90
21261;DHT22;10788;47.930;9.766;2023-06-22T01:48:35;19.10;99.90
21261;DHT22;10788;47.930;9.766;2023-06-22T01:51:02;19.10;99.90
21261;DHT22;10788;47.930;9.766;2023-06-22T01:53:27;19.00;99.90
21261;DHT22;10788;47.930;9.766;2023-06-22T01:55:53;19.00;99.90
21261;DHT22;10788;47.930;9.766;2023-06-22T01:58:20;19.00;99.90
21261;DHT22;10788;47.930;9.766;2023-06-22T02:00:55;19.00;99.90
21261;DHT22;10788;47.930;9.766;2023-06-22T02:03:27;19.00;99.90
21261;DHT22;10788;47.930;9.766;2023-06-22T02:06:01;19.00;99.90
21261;DHT22;10788;47.930;9.766;2023-06-22T02:08:39;19.00;99.90
21261;DHT22;10788;47.930;9.766;2023-06-22T02:11:06;19.00;99.90
21261;DHT22;10788;47.930;9.766;2023-06-22T02:13:34;18.90;99.90
21261;DHT22;10788;47.930;9.766;2023-06-22T02:16:01;18.90;99.90
21261;DHT22;10788;47.930;9.766;2023-06-22T02:18:27;18.80;99.90
21261;DHT22;10788;47.930;9.766;2023-06-22T02:20:53;18.80;99.90
21261;DHT22;10788;47.930;9.766;2023-06-22T02:23:19;18.80;99.90
21261;DHT22;10788;47.930;9.766;2023-06-22T02:25:44;18.80;99.90
21261;DHT22;10788;47.930;9.766;2023-06-22T02:28:10;18.80;99.90
21261;DHT22;10788;47.930;9.766;2023-06-22T02:30:36;18.80;99.90
21261;DHT22;10788;47.930;9.766;2023-06-22T02:33:01;18.80;99.90
21261;DHT22;10788;47.930;9.766;2023-06-22T02:35:28;18.80;99.90
21261;DHT22;10788;47.930;9.766;2023-06-22T02:38:01;18.70;99.90
21261;DHT22;10788;47.930;9.766;2023-06-22T02:40:28;18.70;99.90
21261;DHT22;10788;47.930;9.766;2023-06-22T02:42:54;18.70;99.90
21261;DHT22;10788;47.930;9.766;2023-06-22T02:45:20;18.60;99.90
21261;DHT22;10788;47.930;9.766;2023-06-22T02:47:46;18.50;99.90
21261;DHT22;10788;47.930;9.766;2023-06-22T02:50:13;18.50;99.90
21261;DHT22;10788;47.930;9.766;2023-06-22T02:52:39;18.40;99.90
21261;DHT22;10788;47.930;9.766;2023-06-22T02:55:05;18.40;99.90
21261;DHT22;10788;47.930;9.766;2023-06-22T02:57:32;18.40;99.90
21261;DHT22;10788;47.930;9.766;2023-06-22T02:59:59;18.40;99.90
21261;DHT22;10788;47.930;9.766;2023-06-22T03:02:25;18.30;99.90
21261;DHT22;10788;47.930;9.766;2023-06-22T03:04:52;18.30;99.90
21261;DHT22;10788;47.930;9.766;2023-06-22T03:07:21;18.30;99.90
21261;DHT22;10788;47.930;9.766;2023-06-22T03:09:47;18.30;99.90
21261;DHT22;10788;47.930;9.766;2023-06-22T03:12:13;18.20;99.90
21261;DHT22;10788;47.930;9.766;2023-06-22T03:14:38;18.30;99.90
21261;DHT22;10788;47.930;9.766;2023-06-22T03:17:04;18.30;99.90
21261;DHT22;10788;47.930;9.766;2023-06-22T03:19:30;18.30;99.90
21261;DHT22;10788;47.930;9.766;2023-06-22T03:21:58;18.30;99.90
21261;DHT22;10788;47.930;9.766;2023-06-22T03:24:24;18.20;99.90
21261;DHT22;10788;47.930;9.766;2023-06-22T03:26:56;18.20;99.90
21261;DHT22;10788;47.930;9.766;2023-06-22T03:29:25;18.20;99.90
21261;DHT22;10788;47.930;9.766;2023-06-22T03:31:51;18.20;99.90
21261;DHT22;10788;47.930;9.766;2023-06-22T03:34:17;18.30;99.90
21261;DHT22;10788;47.930;9.766;2023-06-22T03:36:42;18.20;99.90
21261;DHT22;10788;47.930;9.766;2023-06-22T03:39:10;18.20;99.90
21261;DHT22;10788;47.930;9.766;2023-06-22T03:41:36;18.30;99.90
21261;DHT22;10788;47.930;9.766;2023-06-22T03:44:01;18.20;99.90
21261;DHT22;10788;47.930;9.766;2023-06-22T03:46:27;18.20;99.90
21261;DHT22;10788;47.930;9.766;2023-06-22T03:48:53;18.20;99.90
21261;DHT22;10788;47.930;9.766;2023-06-22T03:51:18;18.20;99.90
21261;DHT22;10788;47.930;9.766;2023-06-22T03:53:44;18.20;99.90
21261;DHT22;10788;47.930;9.766;2023-06-22T03:56:10;18.20;99.90
21261;DHT22;10788;47.930;9.766;2023-06-22T03:58:35;18.20;99.90
21261;DHT22;10788;47.930;9.766;2023-06-22T04:01:02;18.20;99.90
21261;DHT22;10788;47.930;9.766;2023-06-22T04:03:27;18.20;99.90
21261;DHT22;10788;47.930;9.766;2023-06-22T04:05:53;18.20;99.90
21261;DHT22;10788;47.930;9.766;2023-06-22T04:08:19;18.30;99.90
21261;DHT22;10788;47.930;9.766;2023-06-22T04:10:44;18.30;99.90
21261;DHT22;10788;47.930;9.766;2023-06-22T04:13:10;18.30;99.90
21261;DHT22;10788;47.930;9.766;2023-06-22T04:15:36;18.30;99.90
21261;DHT22;10788;47.930;9.766;2023-06-22T04:18:02;18.30;99.90
21261;DHT22;10788;47.930;9.766;2023-06-22T04:20:27;18.40;99.90
21261;DHT22;10788;47.930;9.766;2023-06-22T04:22:56;18.40;99.90
21261;DHT22;10788;47.930;9.766;2023-06-22T04:25:22;18.40;99.90
21261;DHT22;10788;47.930;9.766;2023-06-22T04:27:48;18.40;99.90
21261;DHT22;10788;47.930;9.766;2023-06-22T04:30:14;18.40;99.90
21261;DHT22;10788;47.930;9.766;2023-06-22T04:32:43;18.50;99.90
21261;DHT22;10788;47.930;9.766;2023-06-22T04:35:10;18.50;99.90
21261;DHT22;10788;47.930;9.766;2023-06-22T04:37:36;18.50;99.90
21261;DHT22;10788;47.930;9.766;2023-06-22T04:40:02;18.50;99.90
21261;DHT22;10788;47.930;9.766;2023-06-22T04:42:30;18.50;99.90
21261;DHT22;10788;47.930;9.766;2023-06-22T04:44:55;18.50;99.90
21261;DHT22;10788;47.930;9.766;2023-06-22T04:47:21;18.50;99.90
21261;DHT22;10788;47.930;9.766;2023-06-22T04:49:47;18.60;99.90
21261;DHT22;10788;47.930;9.766;2023-06-22T04:52:13;18.60;99.90
21261;DHT22;10788;47.930;9.766;2023-06-22T04:54:45;18.60;99.90
21261;DHT22;10788;47.930;9.766;2023-06-22T04:57:16;18.60;99.90
21261;DHT22;10788;47.930;9.766;2023-06-22T04:59:42;18.60;99.90
21261;DHT22;10788;47.930;9.766;2023-06-22T05:02:08;18.70;99.90
21261;DHT22;10788;47.930;9.766;2023-06-22T05:04:34;18.60;99.90
21261;DHT22;10788;47.930;9.766;2023-06-22T05:07:01;18.70;99.90
21261;DHT22;10788;47.930;9.766;2023-06-22T05:09:29;18.70;99.90
21261;DHT22;10788;47.930;9.766;2023-06-22T05:11:55;18.70;99.90
21261;DHT22;10788;47.930;9.766;2023-06-22T05:14:22;18.80;99.90
21261;DHT22;10788;47.930;9.766;2023-06-22T05:16:48;18.80;99.90
21261;DHT22;10788;47.930;9.766;2023-06-22T05:19:14;18.90;99.90
21261;DHT22;10788;47.930;9.766;2023-06-22T05:21:40;18.90;99.90
21261;DHT22;10788;47.930;9.766;2023-06-22T05:24:06;18.90;99.90
21261;DHT22;10788;47.930;9.766;2023-06-22T05:26:35;19.00;99.90
21261;DHT22;10788;47.930;9.766;2023-06-22T05:29:02;19.00;99.90
21261;DHT22;10788;47.930;9.766;2023-06-22T05:31:28;19.00;99.90
21261;DHT22;10788;47.930;9.766;2023-06-22T05:33:54;19.10;99.90
21261;DHT22;10788;47.930;9.766;2023-06-22T05:36:20;19.10;99.90
21261;DHT22;10788;47.930;9.766;2023-06-22T05:38:47;19.20;99.90
21261;DHT22;10788;47.930;9.766;2023-06-22T05:41:13;19.30;99.90
21261;DHT22;10788;47.930;9.766;2023-06-22T05:43:39;19.30;99.90
21261;DHT22;10788;47.930;9.766;2023-06-22T05:46:05;19.40;99.90
21261;DHT22;10788;47.930;9.766;2023-06-22T05:48:31;19.50;99.90
21261;DHT22;10788;47.930;9.766;2023-06-22T05:50:57;19.60;99.90
21261;DHT22;10788;47.930;9.766;2023-06-22T05:53:23;19.60;99.90
21261;DHT22;10788;47.930;9.766;2023-06-22T05:55:48;19.70;99.90
21261;DHT22;10788;47.930;9.766;2023-06-22T05:58:14;19.80;99.90
21261;DHT22;10788;47.930;9.766;2023-06-22T06:00:40;19.90;99.90
21261;DHT22;10788;47.930;9.766;2023-06-22T06:03:10;20.00;99.90
21261;DHT22;10788;47.930;9.766;2023-06-22T06:05:36;20.10;99.90
21261;DHT22;10788;47.930;9.766;2023-06-22T06:08:04;20.10;99.90
21261;DHT22;10788;47.930;9.766;2023-06-22T06:10:32;20.20;99.90
21261;DHT22;10788;47.930;9.766;2023-06-22T06:12:57;20.30;99.90
21261;DHT22;10788;47.930;9.766;2023-06-22T06:15:23;20.40;99.90
21261;DHT22;10788;47.930;9.766;2023-06-22T06:17:53;20.50;99.90
21261;DHT22;10788;47.930;9.766;2023-06-22T06:20:21;20.60;99.90
21261;DHT22;10788;47.930;9.766;2023-06-22T06:22:47;20.60;99.90
21261;DHT22;10788;47.930;9.766;2023-06-22T06:25:13;20.70;99.90
21261;DHT22;10788;47.930;9.766;2023-06-22T06:27:46;20.80;99.90
21261;DHT22;10788;47.930;9.766;2023-06-22T06:30:13;20.90;99.90
21261;DHT22;10788;47.930;9.766;2023-06-22T06:32:39;21.00;99.90
21261;DHT22;10788;47.930;9.766;2023-06-22T06:35:12;21.00;99.90
21261;DHT22;10788;47.930;9.766;2023-06-22T06:37:42;21.20;99.90
21261;DHT22;10788;47.930;9.766;2023-06-22T06:40:10;21.30;99.90
21261;DHT22;10788;47.930;9.766;2023-06-22T06:42:46;21.40;99.90
21261;DHT22;10788;47.930;9.766;2023-06-22T06:45:22;21.50;99.90
21261;DHT22;10788;47.930;9.766;2023-06-22T06:47:49;21.60;99.90
21261;DHT22;10788;47.930;9.766;2023-06-22T06:50:15;21.70;99.90
21261;DHT22;10788;47.930;9.766;2023-06-22T06:52:41;21.90;99.90
21261;DHT22;10788;47.930;9.766;2023-06-22T06:55:07;22.00;99.90
21261;DHT22;10788;47.930;9.766;2023-06-22T06:57:37;22.10;99.90
21261;DHT22;10788;47.930;9.766;2023-06-22T07:00:04;22.10;99.90
21261;DHT22;10788;47.930;9.766;2023-06-22T07:02:35;22.30;99.90
21261;DHT22;10788;47.930;9.766;2023-06-22T07:05:01;22.40;99.90
21261;DHT22;10788;47.930;9.766;2023-06-22T07:07:29;22.50;99.90
21261;DHT22;10788;47.930;9.766;2023-06-22T07:09:54;22.60;99.90
21261;DHT22;10788;47.930;9.766;2023-06-22T07:12:20;22.70;99.90
21261;DHT22;10788;47.930;9.766;2023-06-22T07:14:46;22.80;99.90
21261;DHT22;10788;47.930;9.766;2023-06-22T07:17:12;22.90;99.90
21261;DHT22;10788;47.930;9.766;2023-06-22T07:19:37;23.00;99.90
21261;DHT22;10788;47.930;9.766;2023-06-22T07:22:04;23.00;99.90
21261;DHT22;10788;47.930;9.766;2023-06-22T07:24:30;23.20;99.90
21261;DHT22;10788;47.930;9.766;2023-06-22T07:26:55;23.20;99.90
21261;DHT22;10788;47.930;9.766;2023-06-22T07:29:25;23.40;99.90
21261;DHT22;10788;47.930;9.766;2023-06-22T07:31:52;23.50;99.90
21261;DHT22;10788;47.930;9.766;2023-06-22T07:34:18;23.60;99.90
21261;DHT22;10788;47.930;9.766;2023-06-22T07:36:44;23.70;99.90
21261;DHT22;10788;47.930;9.766;2023-06-22T07:39:10;23.80;99.90
21261;DHT22;10788;47.930;9.766;2023-06-22T07:41:35;24.00;99.90
21261;DHT22;10788;47.930;9.766;2023-06-22T07:44:02;23.90;99.90
21261;DHT22;10788;47.930;9.766;2023-06-22T07:46:29;24.00;99.90
21261;DHT22;10788;47.930;9.766;2023-06-22T07:48:56;24.30;99.90
21261;DHT22;10788;47.930;9.766;2023-06-22T07:51:22;24.40;99.90
21261;DHT22;10788;47.930;9.766;2023-06-22T07:53:48;24.60;99.90
21261;DHT22;10788;47.930;9.766;2023-06-22T07:56:14;24.60;99.90
21261;DHT22;10788;47.930;9.766;2023-06-22T07:58:45;24.70;99.90
21261;DHT22;10788;47.930;9.766;2023-06-22T08:01:11;24.80;99.90
21261;DHT22;10788;47.930;9.766;2023-06-22T08:03:37;24.90;99.90
21261;DHT22;10788;47.930;9.766;2023-06-22T08:06:03;25.10;99.90
21261;DHT22;10788;47.930;9.766;2023-06-22T08:08:28;25.30;99.90
21261;DHT22;10788;47.930;9.766;2023-06-22T08:10:54;25.40;99.90
21261;DHT22;10788;47.930;9.766;2023-06-22T08:13:20;25.50;99.90
21261;DHT22;10788;47.930;9.766;2023-06-22T08:15:46;25.50;99.90
21261;DHT22;10788;47.930;9.766;2023-06-22T08:18:11;25.70;99.90
21261;DHT22;10788;47.930;9.766;2023-06-22T08:20:37;25.90;99.90
21261;DHT22;10788;47.930;9.766;2023-06-22T08:23:02;26.10;99.90
21261;DHT22;10788;47.930;9.766;2023-06-22T08:25:35;26.20;99.90
21261;DHT22;10788;47.930;9.766;2023-06-22T08:28:01;26.40;99.90
21261;DHT22;10788;47.930;9.766;2023-06-22T08:30:27;26.40;99.90
21261;DHT22;10788;47.930;9.766;2023-06-22T08:32:53;26.50;99.90
21261;DHT22;10788;47.930;9.766;2023-06-22T08:35:21;26.60;99.90
21261;DHT22;10788;47.930;9.766;2023-06-22T08:37:47;26.60;99.90
21261;DHT22;10788;47.930;9.766;2023-06-22T08:40:18;26.90;99.90
21261;DHT22;10788;47.930;9.766;2023-06-22T08:42:45;27.20;99.90
21261;DHT22;10788;47.930;9.766;2023-06-22T08:45:11;27.50;99.90
21261;DHT22;10788;47.930;9.766;2023-06-22T08:47:37;27.80;99.90
21261;DHT22;10788;47.930;9.766;2023-06-22T08:50:04;27.90;99.90
21261;DHT22;10788;47.930;9.766;2023-06-22T08:52:29;27.80;99.90
21261;DHT22;10788;47.930;9.766;2023-06-22T08:54:56;27.80;99.90
21261;DHT22;10788;47.930;9.766;2023-06-22T08:57:23;27.80;99.90
21261;DHT22;10788;47.930;9.766;2023-06-22T08:59:49;27.70;99.90
21261;DHT22;10788;47.930;9.766;2023-06-22T09:02:17;27.70;99.90
21261;DHT22;10788;47.930;9.766;2023-06-22T09:04:43;27.50;99.90
21261;DHT22;10788;47.930;9.766;2023-06-22T09:07:08;27.50;99.90
21261;DHT22;10788;47.930;9.766;2023-06-22T09:09:34;27.60;99.90
21261;DHT22;10788;47.930;9.766;2023-06-22T09:12:00;27.80;99.90
21261;DHT22;10788;47.930;9.766;2023-06-22T09:14:26;28.00;99.90
21261;DHT22;10788;47.930;9.766;2023-06-22T09:16:51;28.00;99.90
21261;DHT22;10788;47.930;9.766;2023-06-22T09:19:17;28.20;99.90
21261;DHT22;10788;47.930;9.766;2023-06-22T09:21:42;28.40;99.90
21261;DHT22;10788;47.930;9.766;2023-06-22T09:24:08;28.40;99.90
21261;DHT22;10788;47.930;9.766;2023-06-22T09:26:34;28.60;99.90
21261;DHT22;10788;47.930;9.766;2023-06-22T09:28:59;28.60;99.90
21261;DHT22;10788;47.930;9.766;2023-06-22T09:31:25;28.80;99.90
21261;DHT22;10788;47.930;9.766;2023-06-22T09:33:55;29.00;99.90
21261;DHT22;10788;47.930;9.766;2023-06-22T09:36:21;28.90;99.90
21261;DHT22;10788;47.930;9.766;2023-06-22T09:38:47;28.70;99.90
21261;DHT22;10788;47.930;9.766;2023-06-22T09:41:13;28.40;99.90
21261;DHT22;10788;47.930;9.766;2023-06-22T09:43:39;28.40;99.90
21261;DHT22;10788;47.930;9.766;2023-06-22T09:46:04;28.60;99.90
21261;DHT22;10788;47.930;9.766;2023-06-22T09:48:31;28.90;99.90
21261;DHT22;10788;47.930;9.766;2023-06-22T09:50:56;29.10;99.90
21261;DHT22;10788;47.930;9.766;2023-06-22T09:53:22;29.30;99.90
21261;DHT22;10788;47.930;9.766;2023-06-22T09:55:48;29.20;99.90
21261;DHT22;10788;47.930;9.766;2023-06-22T09:58:13;29.20;99.90
21261;DHT22;10788;47.930;9.766;2023-06-22T10:00:39;29.30;99.90
21261;DHT22;10788;47.930;9.766;2023-06-22T10:03:06;29.40;99.90
21261;DHT22;10788;47.930;9.766;2023-06-22T10:05:32;29.50;99.90
21261;DHT22;10788;47.930;9.766;2023-06-22T10:07:58;29.50;99.90
21261;DHT22;10788;47.930;9.766;2023-06-22T10:10:23;29.40;99.90
21261;DHT22;10788;47.930;9.766;2023-06-22T10:12:56;29.50;99.90
21261;DHT22;10788;47.930;9.766;2023-06-22T10:15:22;29.60;99.90
21261;DHT22;10788;47.930;9.766;2023-06-22T10:17:48;29.70;99.90
21261;DHT22;10788;47.930;9.766;2023-06-22T10:20:14;29.80;99.90
21261;DHT22;10788;47.930;9.766;2023-06-22T10:22:44;29.90;99.90
21261;DHT22;10788;47.930;9.766;2023-06-22T10:25:12;30.00;99.90
21261;DHT22;10788;47.930;9.766;2023-06-22T10:27:38;30.00;99.90
21261;DHT22;10788;47.930;9.766;2023-06-22T10:30:08;30.00;99.90
21261;DHT22;10788;47.930;9.766;2023-06-22T10:32:34;29.90;99.90
21261;DHT22;10788;47.930;9.766;2023-06-22T10:35:00;29.60;99.90
21261;DHT22;10788;47.930;9.766;2023-06-22T10:37:25;29.50;99.90
21261;DHT22;10788;47.930;9.766;2023-06-22T10:39:51;29.40;99.90
21261;DHT22;10788;47.930;9.766;2023-06-22T10:42:16;29.50;99.90
21261;DHT22;10788;47.930;9.766;2023-06-22T10:44:42;29.60;99.90
21261;DHT22;10788;47.930;9.766;2023-06-22T10:47:10;29.60;99.90
21261;DHT22;10788;47.930;9.766;2023-06-22T10:49:40;29.50;99.90
21261;DHT22;10788;47.930;9.766;2023-06-22T10:52:07;29.50;99.90
21261;DHT22;10788;47.930;9.766;2023-06-22T10:54:33;29.50;99.90
21261;DHT22;10788;47.930;9.766;2023-06-22T10:57:00;29.60;99.90
21261;DHT22;10788;47.930;9.766;2023-06-22T10:59:25;29.50;99.90
21261;DHT22;10788;47.930;9.766;2023-06-22T11:01:53;29.40;99.90
21261;DHT22;10788;47.930;9.766;2023-06-22T11:04:18;29.50;99.90
21261;DHT22;10788;47.930;9.766;2023-06-22T11:06:44;29.60;99.90
21261;DHT22;10788;47.930;9.766;2023-06-22T11:09:10;29.50;99.90
21261;DHT22;10788;47.930;9.766;2023-06-22T11:11:35;29.60;99.90
21261;DHT22;10788;47.930;9.766;2023-06-22T11:14:01;29.60;99.90
21261;DHT22;10788;47.930;9.766;2023-06-22T11:16:27;29.60;99.90
21261;DHT22;10788;47.930;9.766;2023-06-22T11:18:53;29.60;99.90
21261;DHT22;10788;47.930;9.766;2023-06-22T11:21:18;29.80;99.90
21261;DHT22;10788;47.930;9.766;2023-06-22T11:23:45;29.90;99.90
21261;DHT22;10788;47.930;9.766;2023-06-22T11:26:10;30.00;99.90
21261;DHT22;10788;47.930;9.766;2023-06-22T11:28:36;30.10;99.90
21261;DHT22;10788;47.930;9.766;2023-06-22T11:31:02;30.10;99.90
21261;DHT22;10788;47.930;9.766;2023-06-22T11:33:27;30.10;99.90
21261;DHT22;10788;47.930;9.766;2023-06-22T11:35:53;30.20;99.90
21261;DHT22;10788;47.930;9.766;2023-06-22T11:38:18;30.20;99.90
21261;DHT22;10788;47.930;9.766;2023-06-22T11:40:44;30.40;99.90
21261;DHT22;10788;47.930;9.766;2023-06-22T11:43:10;30.60;99.90
21261;DHT22;10788;47.930;9.766;2023-06-22T11:45:35;30.70;99.90
21261;DHT22;10788;47.930;9.766;2023-06-22T11:48:01;30.90;99.90
21261;DHT22;10788;47.930;9.766;2023-06-22T11:50:26;31.00;99.90
21261;DHT22;10788;47.930;9.766;2023-06-22T11:52:55;30.90;99.90
21261;DHT22;10788;47.930;9.766;2023-06-22T11:55:21;30.90;99.90
21261;DHT22;10788;47.930;9.766;2023-06-22T11:57:54;30.80;99.90
21261;DHT22;10788;47.930;9.766;2023-06-22T12:00:21;30.80;99.90
21261;DHT22;10788;47.930;9.766;2023-06-22T12:02:49;30.60;99.90
21261;DHT22;10788;47.930;9.766;2023-06-22T12:05:17;30.60;99.90
21261;DHT22;10788;47.930;9.766;2023-06-22T12:07:43;30.70;99.90
21261;DHT22;10788;47.930;9.766;2023-06-22T12:10:09;30.60;99.90
21261;DHT22;10788;47.930;9.766;2023-06-22T12:12:35;30.60;99.90
21261;DHT22;10788;47.930;9.766;2023-06-22T12:15:00;30.60;99.90
21261;DHT22;10788;47.930;9.766;2023-06-22T12:17:29;30.70;99.90
21261;DHT22;10788;47.930;9.766;2023-06-22T12:19:55;30.70;99.90
21261;DHT22;10788;47.930;9.766;2023-06-22T12:22:21;30.70;99.90
21261;DHT22;10788;47.930;9.766;2023-06-22T12:24:46;30.60;99.90
21261;DHT22;10788;47.930;9.766;2023-06-22T12:27:12;30.50;99.90
21261;DHT22;10788;47.930;9.766;2023-06-22T12:29:38;30.40;99.90
21261;DHT22;10788;47.930;9.766;2023-06-22T12:32:04;30.30;99.90
21261;DHT22;10788;47.930;9.766;2023-06-22T12:34:29;30.20;99.90
21261;DHT22;10788;47.930;9.766;2023-06-22T12:36:55;30.10;99.90
21261;DHT22;10788;47.930;9.766;2023-06-22T12:39:21;29.90;99.90
21261;DHT22;10788;47.930;9.766;2023-06-22T12:41:46;29.80;99.90
21261;DHT22;10788;47.930;9.766;2023-06-22T12:44:12;29.80;99.90
21261;DHT22;10788;47.930;9.766;2023-06-22T12:46:38;29.70;99.90
21261;DHT22;10788;47.930;9.766;2023-06-22T12:49:06;29.60;99.90
21261;DHT22;10788;47.930;9.766;2023-06-22T12:51:32;29.60;99.90
21261;DHT22;10788;47.930;9.766;2023-06-22T12:53:57;29.60;99.90
21261;DHT22;10788;47.930;9.766;2023-06-22T12:56:23;29.50;99.90
21261;DHT22;10788;47.930;9.766;2023-06-22T12:58:49;29.50;99.90
21261;DHT22;10788;47.930;9.766;2023-06-22T13:01:14;29.40;99.90
21261;DHT22;10788;47.930;9.766;2023-06-22T13:03:42;29.40;99.90
21261;DHT22;10788;47.930;9.766;2023-06-22T13:06:07;29.40;99.90
21261;DHT22;10788;47.930;9.766;2023-06-22T13:08:33;29.50;99.90
21261;DHT22;10788;47.930;9.766;2023-06-22T13:10:58;29.50;99.90
21261;DHT22;10788;47.930;9.766;2023-06-22T13:13:25;29.50;99.90
21261;DHT22;10788;47.930;9.766;2023-06-22T13:15:52;29.40;99.90
21261;DHT22;10788;47.930;9.766;2023-06-22T13:18:19;29.40;99.90
21261;DHT22;10788;47.930;9.766;2023-06-22T13:20:45;29.40;99.90
21261;DHT22;10788;47.930;9.766;2023-06-22T13:23:11;29.40;99.90
21261;DHT22;10788;47.930;9.766;2023-06-22T13:25:36;29.50;99.90
21261;DHT22;10788;47.930;9.766;2023-06-22T13:28:02;29.50;99.90
21261;DHT22;10788;47.930;9.766;2023-06-22T13:30:28;29.40;99.90
21261;DHT22;10788;47.930;9.766;2023-06-22T13:32:54;29.40;99.90
21261;DHT22;10788;47.930;9.766;2023-06-22T13:35:19;29.50;99.90
21261;DHT22;10788;47.930;9.766;2023-06-22T13:37:45;29.50;99.90
21261;DHT22;10788;47.930;9.766;2023-06-22T13:40:10;29.50;99.90
21261;DHT22;10788;47.930;9.766;2023-06-22T13:42:36;29.60;99.90
21261;DHT22;10788;47.930;9.766;2023-06-22T13:45:02;29.50;99.90
21261;DHT22;10788;47.930;9.766;2023-06-22T13:47:29;29.60;99.90
21261;DHT22;10788;47.930;9.766;2023-06-22T13:49:55;29.60;99.90
21261;DHT22;10788;47.930;9.766;2023-06-22T13:52:22;29.60;99.90
21261;DHT22;10788;47.930;9.766;2023-06-22T13:54:48;29.50;99.90
21261;DHT22;10788;47.930;9.766;2023-06-22T13:57:14;29.50;99.90
21261;DHT22;10788;47.930;9.766;2023-06-22T13:59:39;29.50;99.90
21261;DHT22;10788;47.930;9.766;2023-06-22T14:02:06;29.60;99.90
21261;DHT22;10788;47.930;9.766;2023-06-22T14:04:31;29.60;99.90
21261;DHT22;10788;47.930;9.766;2023-06-22T14:06:57;29.60;99.90
21261;DHT22;10788;47.930;9.766;2023-06-22T14:09:23;29.60;99.90
21261;DHT22;10788;47.930;9.766;2023-06-22T14:11:48;29.70;99.90
21261;DHT22;10788;47.930;9.766;2023-06-22T14:14:14;29.90;99.90
21261;DHT22;10788;47.930;9.766;2023-06-22T14:16:39;30.00;99.90
21261;DHT22;10788;47.930;9.766;2023-06-22T14:19:05;30.10;99.90
21261;DHT22;10788;47.930;9.766;2023-06-22T14:21:31;30.20;99.90
21261;DHT22;10788;47.930;9.766;2023-06-22T14:23:56;30.20;99.90
21261;DHT22;10788;47.930;9.766;2023-06-22T14:26:22;30.20;99.90
21261;DHT22;10788;47.930;9.766;2023-06-22T14:28:48;30.10;99.90
21261;DHT22;10788;47.930;9.766;2023-06-22T14:31:16;30.10;99.90
21261;DHT22;10788;47.930;9.766;2023-06-22T14:33:46;30.00;99.90
21261;DHT22;10788;47.930;9.766;2023-06-22T14:36:11;29.90;99.90
21261;DHT22;10788;47.930;9.766;2023-06-22T14:38:37;30.00;99.90
21261;DHT22;10788;47.930;9.766;2023-06-22T14:41:03;30.00;99.90
21261;DHT22;10788;47.930;9.766;2023-06-22T14:43:28;30.00;99.90
21261;DHT22;10788;47.930;9.766;2023-06-22T14:45:54;30.00;99.90
21261;DHT22;10788;47.930;9.766;2023-06-22T14:48:20;30.00;99.90
21261;DHT22;10788;47.930;9.766;2023-06-22T14:50:45;29.90;99.90
21261;DHT22;10788;47.930;9.766;2023-06-22T14:53:11;29.80;99.90
21261;DHT22;10788;47.930;9.766;2023-06-22T14:55:37;29.80;99.90
21261;DHT22;10788;47.930;9.766;2023-06-22T14:58:02;29.90;99.90
21261;DHT22;10788;47.930;9.766;2023-06-22T15:00:28;29.90;99.90
21261;DHT22;10788;47.930;9.766;2023-06-22T15:02:53;29.90;99.90
21261;DHT22;10788;47.930;9.766;2023-06-22T15:05:19;30.10;99.90
21261;DHT22;10788;47.930;9.766;2023-06-22T15:07:44;30.10;99.90
21261;DHT22;10788;47.930;9.766;2023-06-22T15:10:10;30.00;99.90
21261;DHT22;10788;47.930;9.766;2023-06-22T15:12:36;30.00;99.90
21261;DHT22;10788;47.930;9.766;2023-06-22T15:15:01;29.90;99.90
21261;DHT22;10788;47.930;9.766;2023-06-22T15:17:27;29.80;99.90
21261;DHT22;10788;47.930;9.766;2023-06-22T15:19:55;29.70;99.90
21261;DHT22;10788;47.930;9.766;2023-06-22T15:22:21;29.60;99.90
21261;DHT22;10788;47.930;9.766;2023-06-22T15:24:46;29.60;99.90
21261;DHT22;10788;47.930;9.766;2023-06-22T15:27:13;29.50;99.90
21261;DHT22;10788;47.930;9.766;2023-06-22T15:29:39;29.40;99.90